Waynesfield, OH (45896)

3:19 PM EST on December 08, 2016 (GMT -0500)
Lima Allen County | | Change Station

Elev 974 ft 40.71 °N, 84.03 °W | Updated 26 minutes ago

Overcast
Overcast
23 °F
Feels Like 8 °F
N
21
Wind Variable Wind from West
Gusts 28 mph

Today
High -- | Low -- °F
--% Chance of Precip.
Yesterday
High -- | Low -- °F
Precip. -- in
Pressure 30.27 in
Visibility 5.0 miles
Clouds Overcast 2200 ft
Windchill 8 °F
Dew Point 17 °F
Humidity 78%
Rainfall 0.00 in
Snow Depth Not available.
7:47 AM 5:08 PM
Waxing Gibbous, 66% visible
METAR KAOH 081953Z AUTO 27018G24KT 5SM -SN OVC022 M05/M08 A3023 RMK AO2 SNB04 SLP249 P0000 T10501083
Pressure 30.27 in
Visibility 5.0 miles
Clouds Overcast 2200 ft
Windchill 8 °F
Dew Point 17 °F
Humidity 78%
Rainfall 0.00 in
Snow Depth Not available.
7:47 AM 5:08 PM
Waxing Gibbous, 66% visible
METAR KAOH 081953Z AUTO 27018G24KT 5SM -SN OVC022 M05/M08 A3023 RMK AO2 SNB04 SLP249 P0000 T10501083

10-Day Weather Forecast

Almanac

Astronomy

Dec. 08, 2016 Rise Set
Actual Time
Civil Twilight
Nautical Twilight
Astronomical Twilight
Moon
Length of Visible Light
Length of Day
Tomorrow will be .
, % of the Moon is Illuminated

Today's Extremes

State Highs State Lows

Community

WunderPhotos

Upload Photos

1,956,277 photos uploaded!

WunderBlog® & News

Nearby

Air Quality

  Air Quality AQ Index Pollutant
Not available.

Snow Depth

Station Depth Elevation

Earthquake Activity

City Distance Mag. Time & Date
Minimum magnitude displayed is 2.5.

Coastal Water Temperatures

Place Temperature

Stations

Nearby Weather Stations

Station Location Temp. Windchill Dew Point Humidity Wind Precip. Elev Updated Type
                   

Watches & Warnings

There are currently no watches in effect.